Aérodrome :
LOGIN :

S'inscrire | Disclaimer

   EN    FR    IT 

 










Légende :    VFR   VFR Marginal   IFR   IFR Intensif   IFR Très Intensif
Visi : 
Plafond : 
>= 8 km
>= 3000ft
5 à 8 km
1000 à 3000 ft
1500m à 5 km
500 à 1000 ft
800 à 1500m
200 à 500 ft
< 800m
< 200 ft
Symboles :   Orages  Brouillard  Fortes neiges  Fortes précipitations  Vent > 20 kt
SIGMETs :   Divers  Orages  Givrage  Turbulence  Onde Orograph.  Cendres Volcan.






- Altitude de l'aérodrome : 59 ft
- Code IATA : TSF


LIPH - Treviso

DERNIER METAR :
  • 230020Z AUTO VRB02KT 9000 SCT054/// OVC070/// 18/18 Q1011

METARs EXPIRÉS :
  • 222350Z AUTO VRB01KT 9999 OVC085/// 18/18 Q1011
  • 222320Z AUTO 27001KT 6000 SCT073/// BKN097/// BKN230/// 18/18 Q1011
  • 222250Z AUTO VRB01KT 9999 BKN230/// 18/18 Q1011
  • 222220Z AUTO VRB02KT 9999 BKN100/// BKN220/// 18/18 Q1011
  • 222150Z AUTO VRB02KT 9999 FEW079/// OVC096/// 18/18 Q1012

TAF TAF LIPH
Valide du 23 à 00h jusqu'au 24 à 00h UTC


222300Z 2300/2324 VRB05KT 9999 SCT050
PROB40
TEMPO 2310/2318 TSRA



MET'MAP, la Météo Aéronautique d'un coup d'oeil ! - Copyright ORBIFLY Décembre 2007 - Disclaimer

ORBIFLY MET'MAP TEAM :

Programmation & Développement : Alexandra Zaïnal
Sur une idée originale de : Baudouin d'Aumeries
Assistance à la programmation : Marc-Olivier Méhu
Soutien technique & logistique : Manuel Goepfert

Contact : metmap@orbifly.com




SOURCES & CREDITS :

   NOAA